首页
METAR-TAF:

METAR-TAF

机场 :

瓦加杜古國際機場

瓦加杜古, 布吉納法索

纬度: 12-21N, 经度: 001-31W, 海拔: 316米

当前天气观测

该预报发布于48分钟前的19:00 UTC
风速6节,风向北转东北
温度 29°C
湿度 19%
气压 1012 hPa
能見度: 4500
浮尘

METAR: DFFD 231900Z 03006KT 4500 DU NSC 29/03 Q1012 BECMG 6000 NSW

时间: 19:48 (19:48 UTC)

预报

该预报发布于2小时和48分钟前的17:00 UTC
预报有效从23日的 18点(UTC)到 24日的 24点(UTC)
风速10节,风向
能見度: 2500
浮尘
短暂存在
从 23日的 18点(UTC)到 23日的 22点(UTC)
能見度: 1400
浮尘
短暂存在
从 24日的 06点(UTC)到 24日的 11点(UTC)
能見度: 1200
浮尘

TAF: DFFD 231700Z 2318/2424 08010KT 2500 DU NSC TEMPO 2318/2322 1400 DU TEMPO 2406/2411 1200 DU

超过4000个机场的气象观测和天气预报(METAR&TAF报告)。

可查询的气象台以黄色和红色小点在地图上表示。

将鼠标移到小点上方,可查看气象台名称。

然后点击查看天气观测和预报。

如需切换地图:点击带黑十字的绿色按钮放大地图;点击带横线的绿色按钮缩小地图;或者点击绿色箭头查看邻近地区的地图。


METAR-TAF: